Time;durP1;ratioP1;P1;durP2;ratioP2;P2;SDS_P1;SDS_P2;PMS_P1;PMS_P2;Temp;Humidity;BMP_temperature;BMP_pressure;BME280_temperature;BME280_humidity;BME280_pressure;Samples;Min_cycle;Max_cycle;Signal;HPM_P1;HPM_P2
2021/09/25 00:00:47;;;;;;;9.07;7.13;;;;;;;12.29;75.24;99027.69;2619405;54;20585;-65
2021/09/25 00:03:17;;;;;;;10.95;7.65;;;;;;;12.31;75.67;99030.94;2619133;47;20042;-65
2021/09/25 00:05:47;;;;;;;8.60;7.43;;;;;;;12.34;75.66;99022.59;2619250;54;20027;-64
2021/09/25 00:08:19;;;;;;;8.35;7.25;;;;;;;12.33;75.38;99028.91;2619900;39;20437;-65
2021/09/25 00:10:49;;;;;;;9.70;7.28;;;;;;;12.31;75.19;99019.53;2619301;54;20030;-65
2021/09/25 00:13:19;;;;;;;8.07;7.28;;;;;;;12.22;75.71;99016.22;2619071;54;20538;-65
2021/09/25 00:15:49;;;;;;;8.95;7.00;;;;;;;12.26;75.21;99024.59;2619559;39;20581;-64
2021/09/25 00:18:18;;;;;;;8.30;6.88;;;;;;;12.25;75.22;99015.84;2618614;47;20042;-65
2021/09/25 00:20:48;;;;;;;8.85;7.10;;;;;;;12.34;75.41;99019.13;2619292;54;20058;-65
2021/09/25 00:23:21;;;;;;;9.55;7.53;;;;;;;12.45;75.14;99029.16;2619181;54;20069;-65
2021/09/25 00:25:50;;;;;;;8.05;6.07;;;;;;;12.50;74.73;99032.03;2618656;54;20038;-64
2021/09/25 00:28:20;;;;;;;6.88;5.65;;;;;;;12.53;74.40;99030.81;2616523;47;20034;-68
2021/09/25 00:30:50;;;;;;;7.50;6.78;;;;;;;12.54;73.69;99030.63;2617686;47;20034;-68
2021/09/25 00:33:19;;;;;;;8.85;7.40;;;;;;;12.39;73.50;99027.31;2617568;47;20030;-69
2021/09/25 00:35:49;;;;;;;7.65;6.95;;;;;;;12.17;74.32;99025.81;2618194;54;20030;-68
2021/09/25 00:38:21;;;;;;;7.80;6.97;;;;;;;12.09;75.03;99032.88;2617829;47;20035;-69
2021/09/25 00:40:51;;;;;;;8.38;6.38;;;;;;;12.09;74.80;99024.94;2617590;54;20057;-69
2021/09/25 00:43:21;;;;;;;9.63;6.78;;;;;;;12.09;75.09;99026.78;2617611;54;20042;-69
2021/09/25 00:45:51;;;;;;;8.20;7.00;;;;;;;12.02;74.82;99025.91;2617540;54;20030;-69
2021/09/25 00:48:20;;;;;;;8.18;6.85;;;;;;;11.93;75.09;99027.91;2617648;47;20030;-68
2021/09/25 00:50:50;;;;;;;8.55;7.75;;;;;;;11.93;75.35;99025.25;2617575;54;20069;-68
2021/09/25 00:53:22;;;;;;;7.32;6.53;;;;;;;11.88;74.88;99039.09;2617548;47;20065;-68
2021/09/25 00:55:52;;;;;;;9.40;7.25;;;;;;;11.87;75.02;99037.44;2618323;54;20034;-68
2021/09/25 00:58:22;;;;;;;8.77;6.75;;;;;;;11.80;75.04;99036.56;2617599;54;20034;-68
2021/09/25 01:00:51;;;;;;;10.32;7.72;;;;;;;11.84;75.31;99039.69;2618154;54;20026;-68
2021/09/25 01:03:21;;;;;;;7.93;7.13;;;;;;;11.82;75.16;99031.88;2618298;54;20030;-68
2021/09/25 01:05:51;;;;;;;8.10;7.05;;;;;;;11.85;75.19;99033.38;2619325;54;20047;-69
2021/09/25 01:08:25;;;;;;;8.30;7.47;;;;;;;11.82;74.90;99041.66;2619671;54;20050;-69
2021/09/25 01:10:57;;;;;;;8.45;6.47;;;;;;;11.76;75.20;99039.81;2619999;54;20018;-68
2021/09/25 01:13:27;;;;;;;16.20;7.60;;;;;;;11.74;74.82;99033.88;2619222;47;20037;-68
2021/09/25 01:15:56;;;;;;;8.65;7.18;;;;;;;11.74;75.13;99039.19;2620056;54;20046;-68
2021/09/25 01:18:26;;;;;;;8.57;7.03;;;;;;;11.74;75.00;99033.88;2619261;47;20044;-68
2021/09/25 01:20:56;;;;;;;9.10;6.72;;;;;;;11.77;74.91;99034.31;2619866;54;20039;-68
2021/09/25 01:23:28;;;;;;;7.82;7.03;;;;;;;11.80;74.92;99033.94;2619427;54;20022;-69
2021/09/25 01:25:58;;;;;;;8.50;6.85;;;;;;;11.80;74.20;99041.06;2618244;47;20022;-69
2021/09/25 01:28:28;;;;;;;7.47;6.78;;;;;;;11.72;75.00;99030.63;2619255;51;20042;-69
2021/09/25 01:30:57;;;;;;;9.63;7.50;;;;;;;11.71;74.17;99028.97;2621842;47;20546;-70
2021/09/25 01:33:29;;;;;;;7.93;6.85;;;;;;;11.51;74.39;99020.88;2621405;54;20034;-69
2021/09/25 01:35:59;;;;;;;8.10;6.53;;;;;;;11.47;74.83;99024.94;2622487;54;20034;-69
2021/09/25 01:38:31;;;;;;;7.50;6.75;;;;;;;11.47;74.60;99033.72;2623123;54;20026;-70
2021/09/25 01:41:01;;;;;;;7.75;6.95;;;;;;;11.43;74.75;99026.31;2619401;54;20038;-69
2021/09/25 01:43:31;;;;;;;10.25;7.03;;;;;;;11.33;75.26;99022.19;2618573;54;20038;-70
2021/09/25 01:46:02;;;;;;;8.88;6.75;;;;;;;11.30;75.59;99035.78;2619357;54;20030;-68
2021/09/25 01:48:32;;;;;;;8.15;7.07;;;;;;;11.31;75.35;99032.16;2619285;54;20086;-68
2021/09/25 01:51:01;;;;;;;11.77;7.85;;;;;;;11.31;75.25;99029.50;2619520;54;20038;-68
2021/09/25 01:53:34;;;;;;;9.60;7.20;;;;;;;11.28;75.09;99023.78;2619089;39;20426;-68
2021/09/25 01:56:11;;;;;;;11.30;7.72;;;;;;;11.22;75.09;99033.28;2618589;54;20170;-68
2021/09/25 01:58:42;;;;;;;8.15;7.32;;;;;;;11.19;75.37;99035.53;2620038;54;20033;-68
2021/09/25 02:01:13;;;;;;;10.90;8.05;;;;;;;11.13;75.20;99034.44;2621790;39;20426;-68
2021/09/25 02:03:44;;;;;;;10.25;7.07;;;;;;;11.08;75.27;99036.84;2618642;54;20045;-68
2021/09/25 02:06:14;;;;;;;8.55;6.82;;;;;;;10.95;75.57;99040.19;2618923;54;20097;-68
2021/09/25 02:08:46;;;;;;;13.48;8.00;;;;;;;11.00;75.51;99044.91;2619129;54;20026;-68
2021/09/25 02:11:16;;;;;;;9.10;6.80;;;;;;;10.98;76.14;99045.09;2623560;54;20037;-68
2021/09/25 02:13:46;;;;;;;9.57;8.13;;;;;;;10.98;75.76;99046.91;2623749;47;20569;-69
2021/09/25 02:16:16;;;;;;;10.23;8.15;;;;;;;10.95;75.60;99047.31;2624358;54;20026;-68
2021/09/25 02:18:46;;;;;;;8.70;7.38;;;;;;;10.83;75.72;99050.44;2623926;54;20034;-68
2021/09/25 02:21:16;;;;;;;8.50;6.78;;;;;;;10.76;75.85;99046.91;2623396;47;20036;-69
2021/09/25 02:23:48;;;;;;;8.43;7.35;;;;;;;10.80;76.32;99032.31;2623728;54;20038;-70
2021/09/25 02:26:18;;;;;;;8.65;7.65;;;;;;;10.86;75.82;99031.56;2623575;54;20031;-69
2021/09/25 02:28:48;;;;;;;7.20;6.50;;;;;;;10.78;75.72;99039.63;2623916;54;20146;-70
2021/09/25 02:31:20;;;;;;;8.68;6.88;;;;;;;10.83;75.74;99049.63;2621960;54;20033;-69
2021/09/25 02:33:50;;;;;;;10.13;6.80;;;;;;;10.88;75.83;99039.28;2620298;47;20033;-69
2021/09/25 02:36:20;;;;;;;7.43;6.18;;;;;;;10.95;75.58;99044.66;2618606;47;20033;-70
2021/09/25 02:38:52;;;;;;;7.63;6.38;;;;;;;10.97;75.35;99042.63;2620692;54;20025;-69
2021/09/25 02:41:22;;;;;;;9.48;7.25;;;;;;;10.96;75.57;99041.81;2618773;54;20031;-69
2021/09/25 02:43:52;;;;;;;7.95;7.15;;;;;;;10.91;74.72;99042.38;2618724;47;20057;-69
2021/09/25 02:46:21;;;;;;;9.68;7.05;;;;;;;10.88;74.49;99045.41;2620019;54;20032;-69
2021/09/25 02:48:51;;;;;;;7.60;6.85;;;;;;;10.78;74.93;99044.91;2618607;54;20031;-68
2021/09/25 02:51:21;;;;;;;7.43;6.63;;;;;;;10.75;75.38;99040.00;2619790;54;20047;-75
2021/09/25 02:53:53;;;;;;;8.73;7.20;;;;;;;10.68;75.42;99023.22;2620463;54;20045;-68
2021/09/25 02:56:23;;;;;;;8.38;6.85;;;;;;;10.65;75.64;99026.25;2619420;54;20034;-68
2021/09/25 02:58:52;;;;;;;9.50;7.65;;;;;;;10.65;75.42;99027.09;2618942;54;20029;-69
2021/09/25 03:01:42;;;;;;;7.82;6.70;;;;;;;10.59;75.43;99024.34;2618054;46;20544;-69
2021/09/25 03:04:12;;;;;;;7.90;6.72;;;;;;;10.53;75.44;99025.09;2618430;54;20023;-69
2021/09/25 03:06:42;;;;;;;7.90;7.10;;;;;;;10.50;75.35;99025.50;2617937;47;20042;-69
2021/09/25 03:09:14;;;;;;;8.40;7.35;;;;;;;10.45;75.67;99018.13;2618486;54;20033;-69
2021/09/25 03:11:44;;;;;;;7.85;7.05;;;;;;;10.44;75.53;99013.81;2618006;54;20038;-68
2021/09/25 03:14:13;;;;;;;7.78;6.53;;;;;;;10.43;75.52;99017.47;2617755;47;20046;-69
2021/09/25 03:16:43;;;;;;;8.30;7.45;;;;;;;10.30;76.02;99018.16;2619005;39;20427;-69
2021/09/25 03:19:13;;;;;;;10.80;7.30;;;;;;;10.29;76.04;99024.44;2618517;54;20561;-69
2021/09/25 03:21:42;;;;;;;13.70;7.50;;;;;;;10.34;76.09;99019.41;2617913;47;20061;-69
2021/09/25 03:24:15;;;;;;;8.75;7.85;;;;;;;10.28;75.48;99017.50;2617891;54;20039;-70
2021/09/25 03:26:44;;;;;;;8.45;7.35;;;;;;;10.21;76.01;99013.94;2618395;54;20019;-68
2021/09/25 03:29:14;;;;;;;9.38;7.47;;;;;;;10.20;76.04;99007.00;2618551;54;20035;-68
2021/09/25 03:31:44;;;;;;;7.38;6.63;;;;;;;10.17;76.16;99010.03;2618730;54;20026;-68
2021/09/25 03:34:22;;;;;;;7.82;6.95;;;;;;;10.16;76.21;99008.38;2618838;54;20031;-68
2021/09/25 03:36:53;;;;;;;8.88;7.35;;;;;;;10.16;76.25;99003.09;2618599;54;20030;-68
2021/09/25 03:39:25;;;;;;;9.75;7.65;;;;;;;10.24;76.02;99002.97;2618286;54;20022;-69
2021/09/25 03:41:55;;;;;;;9.82;7.07;;;;;;;10.26;76.17;99005.50;2617936;54;20030;-69
2021/09/25 03:44:25;;;;;;;9.23;7.40;;;;;;;10.21;75.53;99003.38;2617712;47;20033;-69
2021/09/25 03:46:55;;;;;;;9.82;6.82;;;;;;;10.20;75.70;98998.25;2618089;54;20073;-69
2021/09/25 03:49:25;;;;;;;7.50;6.57;;;;;;;10.30;75.96;99009.41;2618422;54;20098;-69
2021/09/25 03:51:55;;;;;;;7.43;6.72;;;;;;;10.30;74.94;98998.84;2618241;54;20026;-69
2021/09/25 03:54:27;;;;;;;10.63;6.40;;;;;;;10.23;75.18;99005.81;2617791;48;20034;-69
2021/09/25 03:56:57;;;;;;;7.97;6.40;;;;;;;10.18;74.88;99012.47;2618408;39;20403;-68
2021/09/25 03:59:26;;;;;;;7.03;5.88;;;;;;;10.12;75.12;99015.03;2617659;47;20070;-69
2021/09/25 04:01:56;;;;;;;9.20;6.68;;;;;;;10.14;75.40;99018.31;2618222;54;20026;-69
2021/09/25 04:04:26;;;;;;;7.43;6.28;;;;;;;10.15;75.30;99014.66;2618321;54;20026;-69
2021/09/25 04:06:57;;;;;;;6.30;5.70;;;;;;;10.19;75.36;99015.94;2618478;54;20023;-69
2021/09/25 04:09:29;;;;;;;10.15;6.88;;;;;;;10.30;74.65;99014.69;2618175;54;20035;-69
2021/09/25 04:11:59;;;;;;;8.40;6.15;;;;;;;10.27;74.34;99012.41;2619595;54;20045;-68
2021/09/25 04:14:30;;;;;;;8.68;6.82;;;;;;;9.99;74.12;99023.59;2619491;47;20038;-68
2021/09/25 04:16:59;;;;;;;9.25;6.68;;;;;;;9.94;74.96;99012.78;2620007;46;20038;-69
2021/09/25 04:19:29;;;;;;;9.02;7.10;;;;;;;9.99;74.62;99012.22;2619084;54;20030;-68
2021/09/25 04:21:59;;;;;;;10.85;7.90;;;;;;;9.96;74.68;99012.59;2618779;39;20473;-68
2021/09/25 04:24:31;;;;;;;8.02;6.15;;;;;;;9.84;75.38;99014.91;2618878;39;20390;-69
2021/09/25 04:27:01;;;;;;;7.47;6.78;;;;;;;9.90;75.29;99025.53;2618756;54;20537;-69
2021/09/25 04:29:31;;;;;;;7.70;6.60;;;;;;;9.95;75.50;99016.25;2618511;54;20018;-69
2021/09/25 04:32:00;;;;;;;8.60;6.60;;;;;;;9.91;75.19;99010.50;2618769;39;20410;-68
2021/09/25 04:34:31;;;;;;;7.43;6.72;;;;;;;9.76;74.60;99022.91;2617712;46;20042;-70
2021/09/25 04:37:01;;;;;;;6.85;6.15;;;;;;;9.64;75.22;99026.00;2618334;54;20023;-69
2021/09/25 04:39:34;;;;;;;7.22;6.53;;;;;;;9.73;75.34;99017.97;2617960;54;20031;-69
2021/09/25 04:42:04;;;;;;;8.20;6.25;;;;;;;9.74;74.88;99012.50;2618282;54;20553;-69
2021/09/25 04:44:33;;;;;;;9.82;6.22;;;;;;;9.70;75.65;99018.34;2618152;54;20050;-69
2021/09/25 04:47:03;;;;;;;10.00;6.93;;;;;;;9.77;75.26;99027.19;2617674;51;20053;-69
2021/09/25 04:49:33;;;;;;;8.65;7.18;;;;;;;9.83;75.12;99019.31;2618533;54;20029;-69
2021/09/25 04:52:02;;;;;;;10.68;7.45;;;;;;;9.81;74.77;99029.28;2618146;54;20034;-69
2021/09/25 04:54:35;;;;;;;7.57;6.35;;;;;;;9.71;74.64;99035.81;2621516;54;20037;-69
2021/09/25 04:57:06;;;;;;;8.60;6.97;;;;;;;9.73;74.72;99039.09;2625283;39;20414;-69
2021/09/25 04:59:36;;;;;;;7.03;6.32;;;;;;;9.77;74.40;99045.66;2623296;54;20026;-71
2021/09/25 05:02:05;;;;;;;7.32;6.43;;;;;;;9.78;74.76;99048.09;2622251;54;20022;-71
2021/09/25 05:04:35;;;;;;;13.15;7.53;;;;;;;9.77;74.70;99043.84;2623859;54;20030;-69
2021/09/25 05:07:06;;;;;;;7.53;6.63;;;;;;;9.72;74.52;99048.84;2624497;54;20027;-69
2021/09/25 05:09:38;;;;;;;8.13;6.93;;;;;;;9.63;74.13;99049.91;2624129;54;20134;-69
2021/09/25 05:12:08;;;;;;;8.00;6.50;;;;;;;9.51;74.74;99053.97;2624822;54;20626;-69
2021/09/25 05:14:40;;;;;;;8.10;7.30;;;;;;;9.47;74.94;99047.44;2624674;54;20022;-69
2021/09/25 05:17:10;;;;;;;13.57;9.38;;;;;;;9.37;74.53;99039.78;2623064;54;20026;-70
2021/09/25 05:19:41;;;;;;;13.73;10.15;;;;;;;9.38;74.41;99038.78;2622330;54;20540;-69
2021/09/25 05:22:11;;;;;;;14.95;10.77;;;;;;;9.49;75.12;99040.16;2624622;39;20461;-68
2021/09/25 05:24:45;;;;;;;15.50;11.23;;;;;;;9.50;74.78;99039.16;2624479;54;20045;-69
2021/09/25 05:27:14;;;;;;;15.07;11.25;;;;;;;9.46;74.47;99041.31;2624555;54;20033;-69
2021/09/25 05:29:44;;;;;;;13.30;9.90;;;;;;;9.52;74.99;99047.72;2624475;54;20014;-69
2021/09/25 05:32:14;;;;;;;16.77;10.27;;;;;;;9.64;75.04;99048.94;2624347;54;20038;-69
2021/09/25 05:34:44;;;;;;;15.07;10.98;;;;;;;9.64;74.60;99054.22;2621198;54;20038;-68
2021/09/25 05:37:16;;;;;;;10.93;8.30;;;;;;;9.66;74.63;99055.66;2619280;47;20090;-68
2021/09/25 05:39:54;;;;;;;10.57;7.88;;;;;;;9.71;74.31;99054.28;2619724;47;20035;-69
2021/09/25 05:42:25;;;;;;;13.43;7.90;;;;;;;9.76;73.90;99047.47;2625453;39;20686;-70
2021/09/25 05:44:55;;;;;;;9.13;7.35;;;;;;;9.77;74.09;99050.94;2629263;39;20426;-68
2021/09/25 05:47:24;;;;;;;10.70;8.77;;;;;;;9.63;73.74;99032.28;2626338;54;20041;-69
2021/09/25 05:49:54;;;;;;;13.13;9.65;;;;;;;9.65;73.89;99042.66;2625062;47;20086;-70
2021/09/25 05:52:24;;;;;;;12.38;10.18;;;;;;;9.65;73.86;99043.47;2625220;54;20569;-70
2021/09/25 05:54:56;;;;;;;11.77;9.13;;;;;;;9.72;74.35;99043.56;2625107;47;20137;-72
2021/09/25 05:57:26;;;;;;;9.60;8.38;;;;;;;9.78;73.86;99049.94;2619032;54;20030;-70
2021/09/25 05:59:56;;;;;;;9.38;7.57;;;;;;;9.84;73.92;99050.03;2619296;47;20026;-69
2021/09/25 06:02:26;;;;;;;10.30;7.63;;;;;;;9.87;73.71;99051.47;2619672;47;20026;-68
2021/09/25 06:04:56;;;;;;;8.98;8.05;;;;;;;9.90;73.44;99046.66;2619681;47;20542;-69
2021/09/25 06:07:25;;;;;;;10.05;8.50;;;;;;;9.92;73.45;99047.31;2619227;54;20031;-69
2021/09/25 06:09:58;;;;;;;8.38;7.40;;;;;;;9.84;73.04;99046.59;2620560;54;20548;-69
2021/09/25 06:12:27;;;;;;;9.15;7.68;;;;;;;9.87;73.21;99039.09;2623216;47;20061;-68
2021/09/25 06:14:59;;;;;;;8.20;6.82;;;;;;;9.93;73.16;99030.44;2624834;54;20045;-68
2021/09/25 06:17:29;;;;;;;9.13;7.78;;;;;;;10.01;72.97;99040.09;2623341;47;20173;-70
2021/09/25 06:19:59;;;;;;;10.30;7.97;;;;;;;10.09;72.96;99044.47;2624017;54;20030;-69
2021/09/25 06:22:28;;;;;;;11.25;8.27;;;;;;;10.20;72.83;99041.34;2624301;54;20030;-70
2021/09/25 06:25:01;;;;;;;10.52;7.40;;;;;;;10.18;72.47;99033.63;2625069;54;20030;-71
2021/09/25 06:27:31;;;;;;;9.52;7.35;;;;;;;10.18;72.49;99038.09;2622910;54;20026;-70
2021/09/25 06:30:00;;;;;;;8.48;7.18;;;;;;;10.28;72.63;99041.28;2622900;47;20026;-70
2021/09/25 06:32:30;;;;;;;9.40;7.63;;;;;;;10.37;72.43;99031.44;2626000;39;20468;-70
2021/09/25 06:35:00;;;;;;;9.77;7.45;;;;;;;10.44;72.45;99034.97;2624793;54;20557;-70
2021/09/25 06:37:30;;;;;;;8.77;7.22;;;;;;;10.47;72.35;99031.13;2625130;54;20045;-69
2021/09/25 06:40:02;;;;;;;9.85;6.15;;;;;;;10.52;72.28;99041.97;2624729;47;20556;-69
2021/09/25 06:42:32;;;;;;;7.55;6.75;;;;;;;10.59;72.21;99034.94;2624679;54;20049;-69
2021/09/25 06:45:05;;;;;;;7.90;7.10;;;;;;;10.61;71.71;99035.56;2624508;39;20558;-68
2021/09/25 06:47:34;;;;;;;8.65;7.25;;;;;;;10.73;71.67;99039.34;2624673;54;20052;-68
2021/09/25 06:50:05;;;;;;;10.15;7.45;;;;;;;10.81;71.58;99044.50;2625008;54;20035;-69
2021/09/25 06:52:34;;;;;;;11.32;7.60;;;;;;;10.86;71.31;99042.16;2624117;54;20030;-69
2021/09/25 06:55:08;;;;;;;8.40;7.50;;;;;;;10.94;71.54;99040.34;2624021;54;20038;-68
2021/09/25 06:57:38;;;;;;;10.18;7.57;;;;;;;10.87;71.14;99038.47;2624290;54;20065;-69
2021/09/25 07:00:09;;;;;;;10.30;7.80;;;;;;;10.77;71.42;99035.31;2624532;54;20078;-70
2021/09/25 07:02:39;;;;;;;10.18;9.05;;;;;;;10.74;71.06;99043.66;2624845;54;20038;-69
2021/09/25 07:05:11;;;;;;;10.68;8.35;;;;;;;10.59;71.72;99033.09;2624944;54;20056;-69
2021/09/25 07:07:42;;;;;;;9.20;8.30;;;;;;;10.52;72.56;99031.38;2624704;54;20034;-70
2021/09/25 07:10:14;;;;;;;15.93;11.05;;;;;;;10.54;72.52;99030.22;2624774;54;20030;-69
2021/09/25 07:12:44;;;;;;;11.23;8.55;;;;;;;10.67;72.45;99034.81;2625010;54;20046;-69
2021/09/25 07:15:15;;;;;;;10.18;8.93;;;;;;;10.95;72.49;99031.44;2624393;39;20444;-69
2021/09/25 07:17:45;;;;;;;12.90;8.73;;;;;;;11.18;72.65;99032.03;2624198;47;20030;-70
2021/09/25 07:20:17;;;;;;;10.98;7.95;;;;;;;11.40;72.08;99038.94;2625490;39;20515;-70
2021/09/25 07:22:51;;;;;;;11.60;8.48;;;;;;;11.58;71.55;99037.63;2624395;54;20546;-70
2021/09/25 07:25:24;;;;;;;8.82;7.63;;;;;;;11.80;71.46;99041.06;2623858;54;20045;-70
2021/09/25 07:27:54;;;;;;;9.20;8.30;;;;;;;12.04;71.24;99045.91;2626185;39;20402;-71
2021/09/25 07:30:23;;;;;;;10.95;8.10;;;;;;;12.19;70.93;99044.97;2624219;54;20046;-69
2021/09/25 07:32:53;;;;;;;10.80;8.48;;;;;;;12.36;69.91;99043.59;2624351;47;20588;-68
2021/09/25 07:35:23;;;;;;;9.45;8.45;;;;;;;12.46;69.71;99045.91;2623668;47;20025;-69
2021/09/25 07:37:53;;;;;;;9.90;7.95;;;;;;;12.56;69.87;99039.19;2624937;39;20485;-68
2021/09/25 07:40:25;;;;;;;9.30;8.30;;;;;;;12.76;69.69;99043.72;2624285;39;20414;-69
2021/09/25 07:42:55;;;;;;;11.93;8.88;;;;;;;12.86;68.08;99049.47;2625563;39;20868;-69
2021/09/25 07:45:25;;;;;;;9.38;8.27;;;;;;;12.87;68.61;99045.81;2623896;46;20022;-69
2021/09/25 07:47:55;;;;;;;9.27;8.32;;;;;;;12.91;69.17;99054.19;2624110;54;20034;-70
2021/09/25 07:50:25;;;;;;;12.95;11.35;;;;;;;13.11;69.17;99047.88;2624808;39;20441;-70
2021/09/25 07:52:56;;;;;;;10.93;9.73;;;;;;;13.25;68.53;99046.06;2624452;39;20421;-70
2021/09/25 07:55:29;;;;;;;10.85;9.38;;;;;;;13.31;68.59;99047.09;2623559;54;20034;-71
2021/09/25 07:57:58;;;;;;;11.98;9.05;;;;;;;13.36;68.83;99047.31;2623983;54;20030;-69
2021/09/25 08:00:28;;;;;;;11.98;10.18;;;;;;;13.51;68.57;99055.03;2622423;54;20033;-69
2021/09/25 08:02:58;;;;;;;14.48;9.00;;;;;;;13.58;68.80;99045.25;2624660;31;20502;-68
2021/09/25 08:05:28;;;;;;;10.70;7.97;;;;;;;13.62;68.43;99044.63;2622264;47;20034;-68
2021/09/25 18:31:59;;;;;;;10.20;8.38;;;;;;;20.34;57.93;98794.94;2622065;54;20038;-69
2021/09/25 18:34:29;;;;;;;8.85;7.70;;;;;;;20.31;57.96;98787.38;2622446;47;20022;-70
2021/09/25 18:36:59;;;;;;;10.48;9.10;;;;;;;20.29;58.47;98793.03;2621908;47;20042;-69
2021/09/25 18:39:29;;;;;;;10.02;8.20;;;;;;;20.29;58.38;98791.16;2622540;47;20038;-68
2021/09/25 18:41:59;;;;;;;8.43;7.45;;;;;;;20.28;58.47;98792.19;2622886;54;20034;-69
2021/09/25 18:44:31;;;;;;;9.60;8.70;;;;;;;20.31;58.18;98790.88;2620437;47;20042;-69
2021/09/25 18:47:03;;;;;;;11.23;10.05;;;;;;;20.29;58.52;98777.72;2622503;54;20173;-68
2021/09/25 18:49:33;;;;;;;9.37;8.00;;;;;;;20.28;58.77;98783.31;2624082;54;20038;-69
2021/09/25 18:52:04;;;;;;;10.93;7.53;;;;;;;20.25;58.70;98783.88;2623421;47;20041;-69
2021/09/25 18:54:33;;;;;;;8.35;7.45;;;;;;;20.25;58.43;98781.97;2624339;54;20026;-69
2021/09/25 18:57:03;;;;;;;12.15;10.95;;;;;;;20.26;58.76;98785.47;2624680;54;20039;-69
2021/09/25 18:59:33;;;;;;;12.35;11.13;;;;;;;20.22;58.68;98787.03;2625227;31;20569;-70
2021/09/25 19:02:06;;;;;;;11.57;10.30;;;;;;;20.19;59.31;98788.34;2623435;54;20034;-69
2021/09/25 19:04:37;;;;;;;13.23;11.13;;;;;;;20.20;59.38;98784.59;2623823;54;20078;-70
2021/09/25 19:07:08;;;;;;;17.60;14.38;;;;;;;20.20;59.80;98781.91;2624703;54;20170;-67
2021/09/25 19:09:38;;;;;;;15.90;12.55;;;;;;;20.16;59.82;98786.19;2625321;54;20030;-68
2021/09/25 19:12:09;;;;;;;14.60;11.45;;;;;;;20.17;60.30;98789.69;2625863;54;20026;-69
2021/09/25 19:14:40;;;;;;;9.68;8.65;;;;;;;20.15;59.86;98800.66;2625332;54;20046;-68
2021/09/25 19:17:12;;;;;;;14.95;9.55;;;;;;;20.16;59.86;98804.97;2625243;47;20700;-69
2021/09/25 19:19:45;;;;;;;9.50;8.30;;;;;;;20.15;60.43;98814.09;2626035;54;20062;-69
2021/09/25 19:22:16;;;;;;;12.38;8.93;;;;;;;20.16;60.51;98806.84;2624076;39;20503;-68
2021/09/25 19:24:46;;;;;;;9.05;8.15;;;;;;;20.18;60.54;98810.09;2623322;54;20035;-68
2021/09/25 19:27:18;;;;;;;8.98;8.07;;;;;;;20.15;60.16;98811.41;2624792;54;20042;-69
2021/09/25 19:29:48;;;;;;;8.93;7.82;;;;;;;20.12;60.21;98809.22;2624546;39;20423;-69
2021/09/25 19:32:21;;;;;;;9.07;6.40;;;;;;;20.09;60.22;98812.44;2624387;54;20041;-69
2021/09/25 19:34:51;;;;;;;8.95;7.55;;;;;;;20.07;60.09;98813.75;2624112;54;20070;-69
2021/09/25 19:37:20;;;;;;;7.95;7.07;;;;;;;20.04;60.18;98820.41;2624028;54;20034;-69
2021/09/25 19:39:52;;;;;;;7.43;6.72;;;;;;;20.02;60.05;98820.69;2622631;54;20027;-68
2021/09/25 19:42:22;;;;;;;7.80;7.00;;;;;;;20.01;60.46;98819.06;2619938;54;20060;-69
2021/09/25 19:44:52;;;;;;;9.00;7.20;;;;;;;19.97;60.77;98823.31;2621345;54;20034;-69
2021/09/25 19:47:25;;;;;;;7.35;6.65;;;;;;;19.95;60.88;98821.94;2622163;54;20042;-68
2021/09/25 19:49:55;;;;;;;9.75;8.75;;;;;;;19.90;61.20;98822.69;2622221;47;20081;-69
2021/09/25 19:52:27;;;;;;;9.60;8.50;;;;;;;19.79;61.73;98823.66;2622797;54;20042;-69
2021/09/25 19:54:56;;;;;;;9.82;8.82;;;;;;;19.70;61.88;98828.66;2621964;54;20042;-69
2021/09/25 19:57:26;;;;;;;10.20;8.80;;;;;;;19.64;62.18;98820.81;2622000;54;20038;-70
2021/09/25 19:59:56;;;;;;;10.27;8.55;;;;;;;19.58;62.68;98824.47;2620827;54;20038;-69
2021/09/25 20:02:28;;;;;;;10.18;9.18;;;;;;;19.59;62.16;98818.84;2620144;54;20042;-69
2021/09/25 20:05:00;;;;;;;9.80;8.85;;;;;;;19.59;62.43;98824.19;2623102;46;20114;-69
2021/09/25 20:07:29;;;;;;;11.40;8.95;;;;;;;19.55;62.59;98826.59;2623825;54;20030;-69
2021/09/25 20:09:59;;;;;;;9.45;8.15;;;;;;;19.52;62.66;98823.59;2624266;54;20038;-70
2021/09/25 20:12:29;;;;;;;8.73;7.93;;;;;;;19.50;62.85;98823.84;2624207;39;20445;-69
2021/09/25 20:14:59;;;;;;;8.13;7.32;;;;;;;19.48;63.08;98822.47;2623313;46;20038;-68
2021/09/25 20:17:31;;;;;;;9.18;8.27;;;;;;;19.52;63.11;98824.41;2621274;47;20078;-68
2021/09/25 20:20:01;;;;;;;9.20;7.93;;;;;;;19.50;62.96;98820.34;2619164;47;20034;-69
2021/09/25 20:22:31;;;;;;;9.52;8.63;;;;;;;19.45;63.45;98814.94;2618827;54;20038;-68
2021/09/25 20:25:01;;;;;;;9.38;8.15;;;;;;;19.42;63.29;98816.22;2618377;54;20042;-68
2021/09/25 20:27:31;;;;;;;12.57;9.10;;;;;;;19.45;63.18;98815.72;2618277;47;20122;-68
2021/09/25 20:30:00;;;;;;;9.00;8.05;;;;;;;19.46;63.57;98824.59;2618192;54;20038;-68
2021/09/25 20:32:32;;;;;;;9.90;8.73;;;;;;;19.41;63.81;98817.28;2622819;39;20433;-69
2021/09/25 20:35:02;;;;;;;8.60;7.70;;;;;;;19.30;64.10;98818.22;2624009;47;20038;-69
2021/09/25 20:37:32;;;;;;;14.43;10.38;;;;;;;19.28;64.10;98820.34;2624125;47;20550;-68
2021/09/25 20:40:02;;;;;;;13.57;10.75;;;;;;;19.26;64.57;98820.59;2622559;54;20023;-68
2021/09/25 20:42:31;;;;;;;12.98;10.43;;;;;;;19.28;64.63;98820.34;2622108;47;20830;-68
2021/09/25 20:45:01;;;;;;;10.38;8.98;;;;;;;19.24;64.43;98828.06;2622149;47;20026;-68
2021/09/25 20:47:33;;;;;;;14.15;11.05;;;;;;;19.24;64.52;98822.72;2623559;54;20027;-69
2021/09/25 20:50:03;;;;;;;12.93;10.63;;;;;;;19.21;64.76;98823.19;2624035;54;20022;-69
2021/09/25 20:52:33;;;;;;;10.57;9.48;;;;;;;19.21;64.46;98825.06;2619745;54;20039;-68
2021/09/25 20:55:03;;;;;;;8.75;7.90;;;;;;;19.18;64.90;98826.38;2618801;54;20030;-68
2021/09/25 20:57:33;;;;;;;8.80;8.00;;;;;;;19.17;64.90;98830.13;2617908;47;20038;-69
2021/09/25 21:00:03;;;;;;;9.05;8.15;;;;;;;19.19;64.92;98822.66;2618227;47;20038;-72
2021/09/25 21:02:35;;;;;;;10.45;8.18;;;;;;;19.22;64.96;98824.00;2618123;47;20551;-69
2021/09/25 21:05:07;;;;;;;8.23;7.43;;;;;;;19.19;64.40;98828.00;2617890;47;20053;-69
2021/09/25 21:07:37;;;;;;;8.68;7.78;;;;;;;19.17;64.85;98829.31;2618490;47;20295;-68
2021/09/25 21:10:08;;;;;;;10.38;9.27;;;;;;;19.18;65.00;98821.00;2620111;54;20038;-69
2021/09/25 21:12:38;;;;;;;9.48;8.55;;;;;;;19.15;65.01;98818.84;2621741;54;20026;-68
2021/09/25 21:15:08;;;;;;;11.93;8.52;;;;;;;19.13;65.25;98815.59;2622044;47;20078;-68
2021/09/25 21:17:41;;;;;;;9.27;7.57;;;;;;;19.08;65.13;98815.53;2623054;54;20073;-68
2021/09/25 21:20:12;;;;;;;8.32;7.53;;;;;;;19.07;65.03;98816.59;2621178;54;20643;-69
2021/09/25 21:22:43;;;;;;;8.50;7.60;;;;;;;19.03;65.80;98813.59;2621117;54;20030;-69
2021/09/25 21:25:17;;;;;;;10.02;8.30;;;;;;;19.07;65.45;98818.47;2619067;54;20150;-69
2021/09/25 21:27:47;;;;;;;7.90;7.20;;;;;;;19.07;65.32;98810.44;2618033;54;20034;-69
2021/09/25 21:30:18;;;;;;;8.18;7.38;;;;;;;19.10;65.43;98816.06;2618130;54;20030;-68
2021/09/25 21:32:51;;;;;;;8.80;7.85;;;;;;;19.14;65.59;98813.72;2618312;54;20018;-68
2021/09/25 21:35:21;;;;;;;11.48;9.25;;;;;;;19.18;65.56;98814.84;2617963;47;20042;-68
2021/09/25 21:37:50;;;;;;;9.73;8.50;;;;;;;19.14;65.26;98819.06;2618680;54;20091;-69
2021/09/25 21:40:20;;;;;;;10.57;8.85;;;;;;;19.12;65.21;98821.22;2618499;54;20035;-68
2021/09/25 21:42:50;;;;;;;10.38;9.25;;;;;;;19.13;65.29;98823.63;2622943;54;20034;-69
2021/09/25 21:45:20;;;;;;;10.40;9.40;;;;;;;19.07;65.28;98821.97;2622860;47;20688;-67
2021/09/25 21:47:52;;;;;;;9.93;8.57;;;;;;;19.04;65.26;98817.88;2624314;54;20045;-69
2021/09/25 21:50:22;;;;;;;10.07;9.07;;;;;;;18.98;65.84;98823.41;2624357;54;20562;-68
2021/09/25 21:52:52;;;;;;;11.20;9.02;;;;;;;18.96;65.93;98828.22;2619870;46;20038;-68
2021/09/25 21:55:22;;;;;;;11.30;10.13;;;;;;;19.00;65.86;98822.13;2617303;54;20026;-69
2021/09/25 21:57:52;;;;;;;9.48;8.50;;;;;;;18.98;65.89;98823.41;2617534;47;20027;-68
2021/09/25 22:00:55;;;;;;;10.02;9.02;;;;;;;18.99;66.20;98819.69;2618127;54;20041;-69
2021/09/25 22:03:31;;;;;;;11.23;8.77;;;;;;;18.98;66.08;98821.56;2618600;54;20047;-68
2021/09/25 22:06:03;;;;;;;10.75;9.25;;;;;;;18.93;66.19;98821.47;2622492;54;20543;-69
2021/09/25 22:08:34;;;;;;;11.30;9.43;;;;;;;18.91;65.89;98826.28;2621948;54;20042;-69
2021/09/25 22:11:07;;;;;;;9.18;8.27;;;;;;;18.88;66.48;98826.78;2622746;54;20029;-68